createdAt,value
2019-02-02T00:03:23.605Z,11.33
2019-02-02T00:08:28.518Z,12.83
2019-02-02T00:13:33.778Z,10.40
2019-02-02T00:18:38.785Z,12.97
2019-02-02T00:23:43.774Z,11.33
2019-02-02T00:28:49.156Z,10.53
2019-02-02T00:33:54.177Z,11.87
2019-02-02T00:38:59.402Z,7.23
2019-02-02T00:44:05.121Z,9.00
2019-02-02T00:49:10.296Z,14.23
2019-02-02T00:54:15.307Z,15.03
2019-02-02T00:59:20.761Z,16.63
2019-02-02T01:04:25.714Z,13.77
2019-02-02T01:09:31.221Z,11.70
2019-02-02T01:14:36.529Z,12.43
2019-02-02T01:19:41.388Z,15.20
2019-02-02T01:24:47.083Z,13.67
2019-02-02T01:29:52.343Z,12.83
2019-02-02T01:34:57.552Z,14.03
2019-02-02T01:40:02.773Z,17.13
2019-02-02T01:45:10.633Z,16.30
2019-02-02T01:50:17.081Z,16.37
2019-02-02T01:55:22.181Z,19.47
2019-02-02T02:00:29.104Z,12.03
2019-02-02T02:05:34.721Z,9.00
2019-02-02T02:10:39.682Z,9.10
2019-02-02T02:15:44.857Z,10.10
2019-02-02T02:20:50.303Z,11.77
2019-02-02T02:25:55.309Z,11.07
2019-02-02T02:31:00.216Z,9.63
2019-02-02T02:36:05.266Z,12.77
2019-02-02T02:41:10.500Z,9.07
2019-02-02T02:46:15.693Z,9.67
2019-02-02T02:51:21.043Z,8.53
2019-02-02T02:56:26.020Z,8.30
2019-02-02T03:01:31.022Z,9.07
2019-02-02T03:06:36.265Z,11.37
2019-02-02T03:11:41.373Z,9.97
2019-02-02T03:16:46.354Z,8.20
2019-02-02T03:21:51.649Z,6.37
2019-02-02T03:26:56.602Z,7.77
2019-02-02T03:32:01.842Z,10.30
2019-02-02T03:37:06.904Z,9.10
2019-02-02T03:42:11.842Z,7.60
2019-02-02T03:47:17.069Z,10.57
2019-02-02T03:52:22.547Z,8.23
2019-02-02T03:57:27.480Z,7.20
2019-02-02T04:02:32.490Z,8.47
2019-02-02T04:07:37.500Z,8.03
2019-02-02T04:12:42.546Z,8.00
2019-02-02T04:17:47.466Z,7.53
2019-02-02T04:22:52.704Z,9.03
2019-02-02T04:27:58.142Z,7.43
2019-02-02T04:33:03.513Z,9.73
2019-02-02T04:38:08.550Z,10.37
2019-02-02T04:43:13.475Z,9.30
2019-02-02T04:48:18.768Z,7.87
2019-02-02T04:53:24.010Z,8.00
2019-02-02T04:58:29.222Z,10.07
2019-02-02T05:03:34.335Z,9.80
2019-02-02T05:08:39.667Z,9.70
2019-02-02T05:13:44.927Z,10.83
2019-02-02T05:18:50.154Z,9.63
2019-02-02T05:23:55.157Z,10.47
2019-02-02T05:29:00.256Z,7.10
2019-02-02T05:34:05.312Z,8.20
2019-02-02T05:39:10.588Z,10.23
2019-02-02T05:44:16.206Z,10.03
2019-02-02T05:49:21.614Z,10.87
2019-02-02T05:54:27.377Z,10.17
2019-02-02T05:59:32.285Z,10.07
2019-02-02T06:04:37.294Z,10.97
2019-02-02T06:09:42.638Z,12.77
2019-02-02T06:14:47.614Z,10.07
2019-02-02T06:19:52.656Z,10.47
2019-02-02T06:24:57.598Z,9.70
2019-02-02T06:30:04.543Z,7.87
2019-02-02T06:35:10.946Z,9.53
2019-02-02T06:40:16.469Z,7.10
2019-02-02T06:45:29.958Z,8.30
2019-02-02T06:50:35.059Z,10.83
2019-02-02T06:55:40.370Z,8.50
2019-02-02T07:00:45.303Z,7.73
2019-02-02T07:05:50.450Z,8.50
2019-02-02T07:10:55.517Z,8.73
2019-02-02T07:16:00.601Z,42.50
2019-02-02T07:21:06.026Z,11.73
2019-02-02T07:26:11.301Z,11.93
2019-02-02T07:31:16.533Z,9.50
2019-02-02T07:36:21.822Z,9.27
2019-02-02T07:41:27.080Z,7.27
2019-02-02T07:46:32.857Z,7.97
2019-02-02T07:51:37.988Z,9.27
2019-02-02T07:56:43.440Z,9.13
2019-02-02T08:01:48.467Z,8.80
2019-02-02T08:06:53.613Z,7.97
2019-02-02T08:11:58.871Z,10.10
2019-02-02T08:17:04.202Z,11.03
2019-02-02T08:22:09.101Z,9.80
2019-02-02T08:27:14.049Z,8.63
2019-02-02T08:32:19.198Z,8.57
2019-02-02T08:37:24.157Z,8.80
2019-02-02T08:42:29.405Z,7.87
2019-02-02T08:47:34.568Z,8.10
2019-02-02T08:52:40.395Z,8.03
2019-02-02T08:57:45.739Z,8.17
2019-02-02T09:02:51.003Z,9.03
2019-02-02T09:07:56.010Z,11.67
2019-02-02T09:13:01.282Z,11.67
2019-02-02T09:18:06.473Z,12.37
2019-02-02T09:23:11.429Z,13.30
2019-02-02T09:28:16.361Z,11.13
2019-02-02T09:33:21.500Z,11.90
2019-02-02T09:38:26.657Z,9.47
2019-02-02T09:43:31.846Z,12.77
2019-02-02T09:48:37.176Z,13.60
2019-02-02T09:53:42.010Z,11.23
2019-02-02T09:58:47.050Z,12.80
2019-02-02T10:03:52.203Z,11.73
2019-02-02T10:08:57.598Z,13.97
2019-02-02T10:14:02.743Z,15.83
2019-02-02T10:19:07.701Z,10.83
2019-02-02T10:24:13.132Z,11.07
2019-02-02T10:29:18.266Z,13.63
2019-02-02T10:34:23.453Z,17.10
2019-02-02T10:39:29.146Z,16.77
2019-02-02T10:44:34.265Z,16.37
2019-02-02T10:49:39.493Z,16.17
2019-02-02T10:54:44.376Z,14.90
2019-02-02T10:59:49.469Z,15.10
2019-02-02T11:04:55.023Z,13.60
2019-02-02T11:10:00.401Z,15.17
2019-02-02T11:15:07.826Z,15.47
2019-02-02T11:20:17.583Z,13.97
2019-02-02T11:25:22.377Z,15.00
2019-02-02T11:30:27.718Z,16.93
2019-02-02T11:35:32.888Z,15.60
2019-02-02T11:40:38.236Z,16.93
2019-02-02T11:45:43.516Z,15.73
2019-02-02T11:50:49.219Z,16.50
2019-02-02T11:55:55.698Z,15.93
2019-02-02T12:01:01.121Z,18.00
2019-02-02T12:06:06.891Z,16.87
2019-02-02T12:11:12.192Z,18.20
2019-02-02T12:16:17.220Z,16.30
2019-02-02T12:21:22.122Z,15.60
2019-02-02T12:26:27.378Z,18.63
2019-02-02T12:31:32.372Z,18.07
2019-02-02T12:36:37.458Z,17.87
2019-02-02T12:41:42.810Z,16.03
2019-02-02T12:46:47.773Z,16.33
2019-02-02T12:51:53.585Z,15.87
2019-02-02T12:56:58.913Z,17.37
2019-02-02T13:02:04.048Z,18.47
2019-02-02T13:07:09.116Z,16.93
2019-02-02T13:12:14.538Z,18.00
2019-02-02T13:17:19.856Z,18.40
2019-02-02T13:22:25.147Z,17.80
2019-02-02T13:27:30.448Z,22.37
2019-02-02T13:39:09.905Z,16.30
2019-02-02T13:44:53.545Z,15.37
2019-02-02T13:50:13.067Z,17.23
2019-02-02T13:56:28.064Z,12.30
2019-02-02T14:01:41.787Z,14.87
2019-02-02T14:06:41.296Z,14.10
2019-02-02T14:11:47.301Z,15.77
2019-02-02T14:16:52.502Z,15.50
2019-02-02T14:21:57.702Z,13.87
2019-02-02T14:27:02.577Z,11.90
2019-02-02T14:32:07.776Z,12.10
2019-02-02T14:37:12.969Z,12.43
2019-02-02T14:42:18.397Z,9.87
2019-02-02T14:47:23.880Z,10.00
2019-02-02T14:52:29.315Z,11.33
2019-02-02T14:57:34.511Z,10.40
2019-02-02T15:02:39.866Z,9.20
2019-02-02T15:07:45.244Z,8.30
2019-02-02T15:12:50.653Z,9.33
2019-02-02T15:17:55.617Z,10.73
2019-02-02T15:23:00.903Z,8.80
2019-02-02T15:28:08.667Z,8.70
2019-02-02T15:33:13.875Z,7.73
2019-02-02T15:38:19.183Z,9.63
2019-02-02T15:43:24.497Z,7.10
2019-02-02T15:48:29.733Z,8.63
2019-02-02T15:53:35.126Z,9.67
2019-02-02T15:58:44.852Z,8.70
2019-02-02T16:03:50.179Z,7.83
2019-02-02T16:08:55.766Z,8.00
2019-02-02T16:14:00.747Z,9.10
2019-02-02T16:19:06.150Z,7.47
2019-02-02T16:24:12.201Z,8.07
2019-02-02T16:29:17.417Z,7.70
2019-02-02T16:34:24.417Z,8.03
2019-02-02T16:39:29.754Z,6.73
2019-02-02T16:44:35.186Z,7.50
2019-02-02T16:49:40.174Z,8.50
2019-02-02T16:54:46.173Z,8.97
2019-02-02T16:59:52.160Z,9.53
2019-02-02T17:04:57.177Z,8.57
2019-02-02T17:10:02.281Z,10.33
2019-02-02T17:15:07.798Z,8.93
2019-02-02T17:20:15.337Z,11.07
2019-02-02T17:25:22.576Z,10.77
2019-02-02T17:30:28.310Z,11.97
2019-02-02T17:35:38.119Z,11.13
2019-02-02T17:40:43.455Z,15.07
2019-02-02T17:45:49.285Z,12.47
2019-02-02T17:50:54.777Z,13.27
2019-02-02T17:56:01.082Z,16.03
2019-02-02T18:01:07.041Z,17.83
2019-02-02T18:06:12.459Z,23.30
2019-02-02T18:11:20.241Z,20.13
2019-02-02T18:16:25.480Z,15.33
2019-02-02T18:21:31.213Z,25.70
2019-02-02T18:26:36.461Z,21.33
2019-02-02T18:31:41.746Z,17.50
2019-02-02T18:36:47.613Z,16.33
2019-02-02T18:41:53.989Z,19.20
2019-02-02T18:46:59.761Z,18.10
2019-02-02T18:52:06.240Z,15.70
2019-02-02T18:57:11.781Z,14.47
2019-02-02T19:02:16.821Z,17.13
2019-02-02T19:07:22.400Z,17.80
2019-02-02T19:12:28.094Z,15.97
2019-02-02T19:17:33.256Z,16.70
2019-02-02T19:22:39.049Z,19.77
2019-02-02T19:27:44.531Z,17.17
2019-02-02T19:32:51.690Z,19.97
2019-02-02T19:37:57.502Z,20.97
2019-02-02T19:43:02.632Z,20.10
2019-02-02T19:48:09.169Z,28.80
2019-02-02T19:53:15.170Z,22.20
2019-02-02T19:58:20.220Z,25.13
2019-02-02T20:03:25.706Z,26.10
2019-02-02T20:08:31.027Z,22.57
2019-02-02T20:13:38.566Z,26.00
2019-02-02T20:24:08.945Z,31.23
2019-02-02T20:29:14.912Z,23.80
2019-02-02T20:34:20.345Z,28.07
2019-02-02T20:39:25.606Z,29.37
2019-02-02T20:44:30.891Z,30.30
2019-02-02T20:49:35.945Z,34.33
2019-02-02T20:54:41.129Z,30.90
2019-02-02T20:59:46.161Z,36.23
2019-02-02T21:04:51.192Z,32.57
2019-02-02T21:09:56.484Z,31.03
2019-02-02T21:15:01.936Z,39.17
2019-02-02T21:20:09.907Z,41.27
2019-02-02T21:25:16.645Z,38.80
2019-02-02T21:30:29.716Z,37.63
2019-02-02T21:35:35.100Z,29.70
2019-02-02T21:40:40.072Z,36.00
2019-02-02T21:45:45.679Z,33.43
2019-02-02T21:50:50.821Z,31.37
2019-02-02T21:55:55.941Z,31.47
2019-02-02T22:01:00.820Z,31.13
2019-02-02T22:06:15.114Z,29.33
2019-02-02T22:11:14.929Z,29.43
2019-02-02T22:16:19.924Z,27.77
2019-02-02T22:21:25.025Z,23.53
2019-02-02T22:26:30.317Z,26.07
2019-02-02T22:31:35.189Z,23.83
2019-02-02T22:36:40.448Z,23.23
2019-02-02T22:41:45.748Z,22.73
2019-02-02T22:46:50.659Z,23.67
2019-02-02T22:51:56.158Z,23.20
2019-02-02T22:57:01.105Z,21.80
2019-02-02T23:02:14.405Z,19.40
2019-02-02T23:08:03.286Z,20.43
2019-02-02T23:13:42.416Z,21.80
2019-02-02T23:18:47.734Z,23.90
2019-02-02T23:23:52.760Z,21.03
2019-02-02T23:28:57.998Z,23.33
2019-02-02T23:34:03.353Z,25.90
2019-02-02T23:39:09.567Z,25.00
2019-02-02T23:44:14.845Z,25.17
2019-02-02T23:49:20.118Z,20.77
2019-02-02T23:54:25.161Z,23.57
2019-02-02T23:59:30.358Z,25.67
